createdAt,value
2023-05-14T00:02:23.288Z,21.75
2023-05-14T00:04:50.434Z,21.63
2023-05-14T00:07:17.322Z,22.88
2023-05-14T00:09:44.250Z,21.02
2023-05-14T00:12:11.206Z,20.08
2023-05-14T00:14:38.213Z,20.35
2023-05-14T00:17:06.973Z,20.13
2023-05-14T00:19:34.019Z,19.33
2023-05-14T00:22:00.987Z,20.90
2023-05-14T00:24:27.973Z,21.55
2023-05-14T00:26:54.894Z,20.83
2023-05-14T00:29:21.834Z,18.17
2023-05-14T00:31:48.766Z,18.60
2023-05-14T00:34:15.831Z,17.88
2023-05-14T00:36:46.736Z,17.88
2023-05-14T00:39:14.567Z,17.40
2023-05-14T00:41:41.599Z,17.05
2023-05-14T00:44:08.523Z,17.83
2023-05-14T00:46:35.706Z,18.05
2023-05-14T00:49:02.732Z,17.58
2023-05-14T00:51:29.967Z,17.83
2023-05-14T00:53:57.122Z,18.13
2023-05-14T00:56:25.122Z,18.40
2023-05-14T00:58:52.172Z,17.00
2023-05-14T01:01:19.196Z,16.33
2023-05-14T01:03:46.391Z,16.52
2023-05-14T01:06:24.282Z,16.17
2023-05-14T01:09:09.189Z,17.58
2023-05-14T01:12:02.310Z,16.63
2023-05-14T01:14:40.132Z,15.13
2023-05-14T01:17:10.165Z,15.07
2023-05-14T01:22:08.757Z,15.50
2023-05-14T01:24:36.234Z,13.88
2023-05-14T01:27:40.192Z,14.68
2023-05-14T01:30:14.131Z,14.18
2023-05-14T01:32:43.539Z,14.82
2023-05-14T01:35:11.022Z,14.40
2023-05-14T01:37:40.291Z,13.52
2023-05-14T01:40:10.006Z,13.57
2023-05-14T01:42:38.511Z,14.27
2023-05-14T01:45:06.123Z,14.60
2023-05-14T01:47:33.098Z,14.02
2023-05-14T01:50:00.041Z,13.40
2023-05-14T01:52:27.182Z,15.27
2023-05-14T01:54:54.208Z,13.30
2023-05-14T01:57:21.747Z,12.45
2023-05-14T01:59:48.661Z,13.57
2023-05-14T02:02:15.741Z,13.60
2023-05-14T02:04:42.633Z,12.90
2023-05-14T02:07:09.602Z,13.32
2023-05-14T02:09:36.548Z,13.25
2023-05-14T02:12:03.562Z,13.18
2023-05-14T02:14:30.570Z,13.40
2023-05-14T02:16:57.617Z,13.52
2023-05-14T02:19:24.766Z,13.45
2023-05-14T02:21:51.853Z,14.02
2023-05-14T02:24:18.788Z,13.40
2023-05-14T02:26:45.715Z,13.82
2023-05-14T02:29:12.593Z,12.65
2023-05-14T02:31:39.824Z,16.40
2023-05-14T02:34:07.038Z,14.57
2023-05-14T02:36:33.998Z,14.35
2023-05-14T02:39:05.012Z,13.90
2023-05-14T02:41:31.938Z,14.70
2023-05-14T02:43:58.894Z,15.95
2023-05-14T02:46:26.131Z,16.77
2023-05-14T02:48:53.110Z,16.05
2023-05-14T02:51:21.425Z,16.25
2023-05-14T02:53:48.461Z,17.33
2023-05-14T02:56:15.685Z,17.00
2023-05-14T02:58:42.581Z,17.88
2023-05-14T03:01:09.737Z,16.67
2023-05-14T03:03:38.439Z,15.40
2023-05-14T03:06:06.199Z,16.85
2023-05-14T03:08:33.131Z,18.05
2023-05-14T03:11:00.179Z,17.85
2023-05-14T03:13:27.104Z,16.50
2023-05-14T03:15:55.214Z,16.98
2023-05-14T03:18:22.627Z,15.88
2023-05-14T03:20:49.577Z,16.00
2023-05-14T03:23:16.703Z,16.65
2023-05-14T03:25:43.693Z,16.77
2023-05-14T03:28:10.603Z,15.55
2023-05-14T03:30:37.738Z,16.00
2023-05-14T03:33:04.935Z,16.10
2023-05-14T03:35:31.900Z,15.07
2023-05-14T03:37:59.605Z,16.70
2023-05-14T03:40:27.122Z,13.00
2023-05-14T03:42:54.036Z,13.90
2023-05-14T03:45:21.195Z,14.38
2023-05-14T03:47:48.154Z,12.57
2023-05-14T03:50:15.219Z,13.35
2023-05-14T03:52:42.290Z,13.55
2023-05-14T03:55:09.788Z,13.02
2023-05-14T03:57:37.093Z,12.48
2023-05-14T04:00:07.549Z,13.10
2023-05-14T04:02:43.829Z,12.48
2023-05-14T04:05:11.226Z,12.65
2023-05-14T04:07:38.180Z,12.02
2023-05-14T04:10:05.916Z,12.32
2023-05-14T04:12:35.296Z,10.75
2023-05-14T04:15:02.861Z,13.00
2023-05-14T04:17:29.765Z,11.50
2023-05-14T04:19:56.984Z,12.25
2023-05-14T04:22:24.508Z,11.07
2023-05-14T04:24:51.977Z,11.43
2023-05-14T04:27:34.616Z,11.13
2023-05-14T04:30:01.530Z,11.70
2023-05-14T04:32:28.622Z,11.52
2023-05-14T04:34:55.521Z,12.55
2023-05-14T04:37:22.386Z,12.07
2023-05-14T04:39:49.379Z,11.35
2023-05-14T04:42:16.340Z,11.65
2023-05-14T04:44:43.238Z,11.13
2023-05-14T04:47:10.119Z,11.88
2023-05-14T04:49:37.055Z,14.32
2023-05-14T04:52:04.023Z,11.50
2023-05-14T04:54:31.189Z,10.07
2023-05-14T04:56:58.221Z,11.18
2023-05-14T04:59:25.165Z,10.40
2023-05-14T05:01:52.157Z,9.63
2023-05-14T05:04:19.433Z,9.27
2023-05-14T05:06:46.864Z,9.10
2023-05-14T05:09:14.464Z,9.88
2023-05-14T05:11:41.461Z,9.43
2023-05-14T05:14:08.461Z,8.82
2023-05-14T05:16:35.427Z,9.10
2023-05-14T05:19:02.582Z,9.45
2023-05-14T05:21:29.568Z,8.27
2023-05-14T05:23:56.617Z,7.30
2023-05-14T05:26:23.642Z,9.82
2023-05-14T05:28:50.638Z,7.93
2023-05-14T05:31:19.648Z,7.50
2023-05-14T05:33:47.058Z,9.13
2023-05-14T05:36:13.977Z,7.90
2023-05-14T05:38:42.425Z,6.85
2023-05-14T05:41:09.369Z,6.80
2023-05-14T05:43:36.987Z,7.35
2023-05-14T05:46:03.904Z,7.18
2023-05-14T05:48:30.918Z,6.60
2023-05-14T05:50:58.115Z,7.47
2023-05-14T05:53:25.028Z,6.55
2023-05-14T05:55:52.217Z,6.70
2023-05-14T05:58:19.647Z,7.55
2023-05-14T06:00:49.939Z,6.82
2023-05-14T06:03:17.047Z,7.75
2023-05-14T06:05:44.196Z,8.80
2023-05-14T06:08:11.266Z,7.45
2023-05-14T06:10:38.348Z,7.00
2023-05-14T06:13:05.443Z,7.43
2023-05-14T06:15:32.418Z,7.50
2023-05-14T06:17:59.523Z,7.20
2023-05-14T06:20:26.685Z,6.45
2023-05-14T06:22:54.036Z,6.50
2023-05-14T06:25:21.051Z,5.90
2023-05-14T06:27:47.997Z,5.72
2023-05-14T06:30:15.546Z,6.20
2023-05-14T06:32:42.589Z,5.72
2023-05-14T06:35:09.716Z,6.32
2023-05-14T06:37:36.674Z,6.20
2023-05-14T06:40:04.132Z,6.30
2023-05-14T06:42:31.095Z,4.97
2023-05-14T06:44:58.551Z,5.97
2023-05-14T06:47:25.711Z,5.88
2023-05-14T06:49:52.719Z,5.70
2023-05-14T06:52:19.642Z,5.85
2023-05-14T06:54:46.550Z,4.93
2023-05-14T06:57:14.212Z,5.25
2023-05-14T06:59:41.591Z,4.70
2023-05-14T07:02:08.581Z,5.47
2023-05-14T07:04:36.662Z,4.70
2023-05-14T07:07:03.798Z,5.20
2023-05-14T07:09:30.693Z,5.28
2023-05-14T07:11:57.619Z,4.93
2023-05-14T07:14:24.613Z,5.82
2023-05-14T07:16:51.700Z,5.13
2023-05-14T07:19:18.676Z,5.28
2023-05-14T07:21:45.671Z,5.53
2023-05-14T07:24:12.789Z,5.43
2023-05-14T07:26:39.891Z,4.93
2023-05-14T07:29:07.050Z,5.53
2023-05-14T07:31:34.191Z,5.50
2023-05-14T07:34:01.200Z,7.70
2023-05-14T07:36:28.291Z,6.93
2023-05-14T07:38:55.409Z,6.47
2023-05-14T07:41:22.353Z,6.60
2023-05-14T07:43:49.235Z,6.07
2023-05-14T07:46:16.831Z,7.32
2023-05-14T07:48:43.797Z,8.00
2023-05-14T07:51:10.752Z,7.90
2023-05-14T07:53:37.805Z,7.35
2023-05-14T07:56:05.153Z,7.93
2023-05-14T07:58:32.177Z,7.93
2023-05-14T08:00:59.106Z,7.57
2023-05-14T08:03:26.197Z,8.80
2023-05-14T08:05:53.292Z,7.95
2023-05-14T08:08:20.280Z,7.80
2023-05-14T08:10:47.262Z,7.95
2023-05-14T08:13:14.237Z,7.90
2023-05-14T08:15:41.324Z,7.05
2023-05-14T08:18:08.331Z,7.13
2023-05-14T08:20:35.320Z,7.63
2023-05-14T08:23:02.263Z,7.43
2023-05-14T08:25:29.291Z,8.15
2023-05-14T08:27:56.330Z,7.85
2023-05-14T08:30:23.702Z,8.40
2023-05-14T08:32:51.091Z,8.20
2023-05-14T08:35:19.227Z,9.95
2023-05-14T08:37:46.306Z,13.35
2023-05-14T08:40:13.674Z,7.65
2023-05-14T08:42:45.248Z,7.85
2023-05-14T08:45:18.936Z,8.10
2023-05-14T08:47:51.131Z,7.88
2023-05-14T08:50:22.568Z,8.25
2023-05-14T08:52:50.625Z,8.43
2023-05-14T08:55:17.582Z,9.50
2023-05-14T08:57:44.539Z,10.10
2023-05-14T09:00:12.230Z,8.23
2023-05-14T09:02:42.597Z,8.82
2023-05-14T09:05:10.140Z,8.88
2023-05-14T09:07:37.121Z,8.65
2023-05-14T09:10:04.952Z,8.35
2023-05-14T09:12:31.855Z,7.88
2023-05-14T09:14:58.857Z,8.05
2023-05-14T09:17:28.027Z,7.80
2023-05-14T09:19:55.313Z,8.05
2023-05-14T09:22:22.596Z,7.22
2023-05-14T09:25:04.294Z,7.47
2023-05-14T09:27:32.967Z,7.25
2023-05-14T09:30:09.987Z,7.57
2023-05-14T09:32:38.918Z,7.43
2023-05-14T09:35:22.373Z,6.32
2023-05-14T09:37:51.535Z,6.93
2023-05-14T09:40:20.818Z,6.37
2023-05-14T09:42:49.425Z,6.50
2023-05-14T09:45:17.147Z,6.43
2023-05-14T09:47:45.533Z,6.22
2023-05-14T09:50:12.919Z,7.00
2023-05-14T09:52:40.156Z,6.85
2023-05-14T09:55:08.148Z,7.05
2023-05-14T09:57:35.730Z,6.15
2023-05-14T10:00:02.748Z,5.18
2023-05-14T10:02:41.480Z,5.72
2023-05-14T10:05:09.152Z,5.88
2023-05-14T10:07:49.039Z,5.65
2023-05-14T10:12:52.095Z,5.15
2023-05-14T10:15:30.393Z,4.95
2023-05-14T10:18:03.869Z,5.07
2023-05-14T10:20:31.743Z,4.65
2023-05-14T10:22:59.128Z,4.53
2023-05-14T10:25:27.029Z,4.72
2023-05-14T10:27:54.873Z,4.57
2023-05-14T10:30:25.748Z,4.32
2023-05-14T10:33:10.586Z,3.90
2023-05-14T10:36:02.295Z,4.47
2023-05-14T10:38:32.273Z,4.28
2023-05-14T10:43:29.676Z,4.25
2023-05-14T10:45:58.456Z,4.82
2023-05-14T10:48:26.249Z,4.53
2023-05-14T10:50:54.247Z,5.20
2023-05-14T10:53:22.613Z,4.80
2023-05-14T10:55:49.967Z,5.28
2023-05-14T10:58:18.167Z,4.75
2023-05-14T11:00:48.375Z,5.20
2023-05-14T11:03:16.600Z,5.15
2023-05-14T11:05:45.198Z,5.05
2023-05-14T11:08:12.795Z,4.90
2023-05-14T11:10:39.915Z,4.43
2023-05-14T11:13:07.243Z,5.72
2023-05-14T11:15:34.764Z,5.22
2023-05-14T11:18:01.860Z,5.07
2023-05-14T11:20:28.923Z,4.63
2023-05-14T11:22:55.986Z,5.25
2023-05-14T11:25:25.941Z,5.15
2023-05-14T11:27:56.311Z,5.00
2023-05-14T11:30:23.618Z,4.80
2023-05-14T11:32:51.571Z,4.57
2023-05-14T11:35:19.114Z,5.72
2023-05-14T11:37:52.822Z,5.25
2023-05-14T11:40:20.119Z,4.95
2023-05-14T11:42:47.236Z,4.93
2023-05-14T11:45:24.303Z,5.40
2023-05-14T11:47:52.973Z,5.57
2023-05-14T11:50:21.215Z,5.20
2023-05-14T11:52:50.954Z,6.13
2023-05-14T11:55:18.027Z,5.22
2023-05-14T11:57:45.121Z,5.25
2023-05-14T12:00:14.748Z,5.28
2023-05-14T12:02:42.096Z,5.85
2023-05-14T12:05:12.802Z,5.80
2023-05-14T12:07:39.856Z,5.30
2023-05-14T12:10:07.599Z,5.28
2023-05-14T12:12:37.662Z,5.10
2023-05-14T12:15:14.750Z,5.22
2023-05-14T12:17:41.839Z,5.20
2023-05-14T12:20:13.803Z,4.50
2023-05-14T12:22:42.728Z,4.53
2023-05-14T12:25:15.253Z,4.53
2023-05-14T12:27:45.147Z,4.65
2023-05-14T12:32:46.979Z,4.53
2023-05-14T12:35:14.071Z,4.60
2023-05-14T12:37:42.080Z,4.57
2023-05-14T12:40:12.589Z,4.63
2023-05-14T12:42:39.533Z,5.00
2023-05-14T12:45:08.815Z,4.45
2023-05-14T12:47:36.601Z,4.60
2023-05-14T12:50:03.920Z,5.25
2023-05-14T12:57:30.035Z,5.18
2023-05-14T12:59:57.873Z,4.70
2023-05-14T13:02:24.815Z,5.50
2023-05-14T13:04:51.740Z,4.63
2023-05-14T13:07:18.712Z,5.18
2023-05-14T13:09:45.671Z,4.30
2023-05-14T13:12:12.674Z,5.10
2023-05-14T13:14:39.687Z,4.95
2023-05-14T13:17:08.364Z,4.93
2023-05-14T13:19:35.465Z,4.97
2023-05-14T13:22:02.428Z,4.70
2023-05-14T13:24:29.373Z,4.95
2023-05-14T13:26:56.302Z,5.25
2023-05-14T13:29:24.739Z,5.20
2023-05-14T13:31:51.711Z,5.32
2023-05-14T13:34:19.042Z,5.82
2023-05-14T13:36:47.376Z,5.70
2023-05-14T13:39:14.751Z,5.82
2023-05-14T13:41:42.110Z,5.18
2023-05-14T13:44:09.155Z,5.15
2023-05-14T13:46:36.125Z,5.38
2023-05-14T13:49:03.135Z,5.20
2023-05-14T13:51:30.179Z,4.55
2023-05-14T13:53:57.167Z,5.35
2023-05-14T13:56:24.083Z,6.55
2023-05-14T13:58:51.035Z,5.07
2023-05-14T14:01:18.234Z,4.85
2023-05-14T14:03:45.193Z,4.93
2023-05-14T14:06:12.205Z,5.97
2023-05-14T14:08:39.275Z,5.10
2023-05-14T14:11:06.258Z,4.47
2023-05-14T14:13:33.382Z,5.00
2023-05-14T14:16:00.429Z,5.15
2023-05-14T14:18:27.527Z,5.13
2023-05-14T14:20:54.485Z,5.75
2023-05-14T14:23:21.599Z,6.05
2023-05-14T14:25:48.537Z,5.30
2023-05-14T14:28:15.563Z,5.22
2023-05-14T14:30:43.977Z,5.35
2023-05-14T14:33:11.624Z,5.50
2023-05-14T14:35:38.818Z,5.22
2023-05-14T14:38:05.979Z,5.20
2023-05-14T14:40:36.140Z,5.50
2023-05-14T14:43:03.103Z,5.25
2023-05-14T14:45:30.101Z,4.78
2023-05-14T14:48:32.105Z,5.18
2023-05-14T14:50:59.284Z,5.43
2023-05-14T14:53:26.208Z,6.45
2023-05-14T14:55:53.981Z,7.05
2023-05-14T14:58:21.375Z,5.53
2023-05-14T15:00:51.358Z,5.20
2023-05-14T15:05:45.982Z,6.13
2023-05-14T15:08:13.743Z,4.93
2023-05-14T15:10:41.822Z,5.28
2023-05-14T15:13:09.310Z,5.10
2023-05-14T15:15:36.501Z,5.10
2023-05-14T15:18:04.639Z,7.35
2023-05-14T15:20:31.727Z,5.35
2023-05-14T15:22:58.774Z,5.45
2023-05-14T15:25:27.163Z,5.13
2023-05-14T15:27:54.349Z,5.15
2023-05-14T15:30:21.411Z,5.05
2023-05-14T15:32:48.473Z,6.05
2023-05-14T15:35:15.493Z,4.95
2023-05-14T15:37:44.772Z,4.60
2023-05-14T15:40:12.731Z,4.93
2023-05-14T15:42:43.923Z,4.80
2023-05-14T15:45:13.366Z,4.80
2023-05-14T15:47:41.790Z,4.50
2023-05-14T15:50:09.432Z,6.00
2023-05-14T15:52:36.758Z,4.65
2023-05-14T17:18:15.045Z,6.88
2023-05-14T17:20:42.003Z,8.23
2023-05-14T17:23:08.900Z,7.07
2023-05-14T17:25:35.933Z,7.43
2023-05-14T17:28:05.809Z,7.90
2023-05-14T17:33:00.213Z,6.30
2023-05-14T17:35:27.302Z,7.00
2023-05-14T17:37:54.224Z,7.90
2023-05-14T17:40:21.212Z,7.25
2023-05-14T17:42:48.287Z,8.30
2023-05-14T17:45:15.772Z,7.55
2023-05-14T17:47:42.783Z,7.38
2023-05-14T17:50:09.999Z,7.75
2023-05-14T17:52:37.970Z,8.10
2023-05-14T17:55:05.337Z,7.32
2023-05-14T17:57:35.286Z,7.60
2023-05-14T18:00:02.589Z,8.30
2023-05-14T18:02:37.870Z,6.55
2023-05-14T18:05:05.714Z,6.05
2023-05-14T18:07:32.901Z,6.20
2023-05-14T18:09:59.872Z,6.82
2023-05-14T18:12:27.674Z,6.68
2023-05-14T18:14:54.755Z,6.05
2023-05-14T18:17:21.833Z,6.32
2023-05-14T18:19:48.903Z,6.18
2023-05-14T18:22:16.251Z,6.00
2023-05-14T18:24:44.525Z,6.07
2023-05-14T18:27:11.619Z,6.28
2023-05-14T18:29:38.728Z,6.35
2023-05-14T18:32:06.133Z,6.10
2023-05-14T18:34:33.045Z,5.47
2023-05-14T18:37:00.039Z,6.28
2023-05-14T18:39:26.989Z,6.78
2023-05-14T18:41:55.269Z,6.25
2023-05-14T18:44:22.871Z,5.75
2023-05-14T18:46:50.003Z,6.03
2023-05-14T18:49:17.015Z,6.50
2023-05-14T18:51:44.028Z,6.85
2023-05-14T18:54:11.013Z,6.90
2023-05-14T18:56:38.134Z,7.38
2023-05-14T18:59:05.245Z,7.20
2023-05-14T19:01:32.271Z,7.35
2023-05-14T19:03:59.199Z,8.00
2023-05-14T19:06:26.223Z,8.95
2023-05-14T19:08:53.227Z,8.27
2023-05-14T19:11:20.292Z,8.25
2023-05-14T19:13:48.125Z,8.30
2023-05-14T19:16:15.193Z,9.43
2023-05-14T19:18:42.468Z,7.97
2023-05-14T19:21:09.442Z,7.85
2023-05-14T19:23:36.569Z,7.82
2023-05-14T19:26:04.335Z,8.32
2023-05-14T19:28:31.357Z,8.35
2023-05-14T19:30:58.370Z,9.10
2023-05-14T19:33:26.286Z,9.02
2023-05-14T19:35:53.339Z,9.80
2023-05-14T19:38:21.140Z,9.38
2023-05-14T19:40:48.249Z,10.88
2023-05-14T19:43:15.282Z,8.57
2023-05-14T19:45:42.933Z,8.60
2023-05-14T19:48:09.988Z,8.80
2023-05-14T19:50:39.778Z,9.10
2023-05-14T19:53:06.745Z,9.05
2023-05-14T19:55:33.662Z,9.35
2023-05-14T19:58:00.649Z,8.75
2023-05-14T20:00:27.810Z,8.73
2023-05-14T20:02:55.622Z,9.20
2023-05-14T20:05:22.612Z,9.50
2023-05-14T20:07:49.663Z,8.85
2023-05-14T20:10:17.092Z,9.30
2023-05-14T20:12:45.001Z,8.88
2023-05-14T20:15:15.734Z,9.68
2023-05-14T20:17:42.830Z,9.68
2023-05-14T20:20:10.539Z,8.57
2023-05-14T20:22:38.574Z,9.40
2023-05-14T20:25:06.106Z,10.02
2023-05-14T20:27:33.091Z,9.23
2023-05-14T20:29:59.957Z,10.30
2023-05-14T20:32:26.964Z,9.85
2023-05-14T20:34:53.921Z,10.55
2023-05-14T20:37:20.965Z,9.75
2023-05-14T20:39:48.053Z,11.40
2023-05-14T20:42:15.036Z,11.15
2023-05-14T20:44:42.071Z,10.40
2023-05-14T20:47:08.988Z,10.32
2023-05-14T20:49:35.874Z,10.73
2023-05-14T20:52:02.866Z,10.88
2023-05-14T20:54:29.755Z,10.85
2023-05-14T20:56:56.733Z,9.80
2023-05-14T20:59:23.761Z,10.52
2023-05-14T21:01:51.338Z,10.68
2023-05-14T21:04:18.575Z,10.70
2023-05-14T21:06:46.074Z,10.38
2023-05-14T21:09:13.064Z,10.65
2023-05-14T21:11:40.024Z,10.43
2023-05-14T21:14:06.940Z,10.65
2023-05-14T21:16:34.032Z,12.63
2023-05-14T21:19:01.162Z,11.10
2023-05-14T21:21:28.175Z,10.48
2023-05-14T21:23:55.086Z,10.68
2023-05-14T21:26:22.570Z,12.85
2023-05-14T21:28:49.602Z,11.95
2023-05-14T21:31:16.657Z,11.43
2023-05-14T21:33:43.650Z,12.52
2023-05-14T21:36:11.131Z,12.43
2023-05-14T21:38:38.041Z,13.00
2023-05-14T21:41:05.004Z,14.05
2023-05-14T21:43:31.983Z,13.55
2023-05-14T21:45:58.894Z,14.35
2023-05-14T21:48:26.253Z,12.55
2023-05-14T21:50:53.190Z,13.25
2023-05-14T21:53:20.426Z,12.93
2023-05-14T21:55:47.590Z,12.57
2023-05-14T21:58:14.644Z,12.77
2023-05-14T22:00:41.585Z,12.52
2023-05-14T22:03:08.696Z,11.15
2023-05-14T22:05:35.905Z,10.90
2023-05-14T22:08:02.836Z,12.00
2023-05-14T22:10:31.338Z,11.75
2023-05-14T22:12:58.403Z,11.52
2023-05-14T22:15:25.630Z,12.68
2023-05-14T22:17:52.811Z,12.15
2023-05-14T22:20:19.838Z,11.80
2023-05-14T22:22:46.717Z,12.43
2023-05-14T22:25:13.628Z,12.63
2023-05-14T22:27:40.705Z,11.70
2023-05-14T22:30:08.128Z,11.77
2023-05-14T22:32:35.042Z,11.23
2023-05-14T22:35:02.229Z,11.90
2023-05-14T22:37:29.122Z,11.20
2023-05-14T22:39:56.032Z,11.13
2023-05-14T22:42:22.935Z,11.57
2023-05-14T22:44:49.835Z,11.70
2023-05-14T22:47:16.722Z,11.00
2023-05-14T22:49:43.952Z,10.70
2023-05-14T22:52:10.859Z,10.80
2023-05-14T22:54:37.888Z,11.60
2023-05-14T22:57:05.174Z,11.30
2023-05-14T22:59:32.186Z,10.77
2023-05-14T23:01:59.119Z,10.68
2023-05-14T23:04:26.437Z,10.30
2023-05-14T23:06:53.347Z,11.07
2023-05-14T23:09:20.384Z,10.68
2023-05-14T23:11:47.422Z,11.15
2023-05-14T23:14:14.402Z,11.15
2023-05-14T23:16:41.278Z,11.50
2023-05-14T23:19:08.321Z,10.30
2023-05-14T23:21:35.403Z,10.20
2023-05-14T23:24:02.345Z,10.25
2023-05-14T23:26:29.373Z,10.55
2023-05-14T23:28:56.340Z,10.52
2023-05-14T23:31:23.263Z,10.60
2023-05-14T23:33:50.279Z,10.25
2023-05-14T23:36:17.239Z,9.75
2023-05-14T23:38:44.498Z,10.48
2023-05-14T23:41:11.395Z,10.38
2023-05-14T23:43:38.328Z,9.73
2023-05-14T23:46:05.463Z,10.10
2023-05-14T23:48:32.852Z,9.50
2023-05-14T23:50:59.744Z,9.98
2023-05-14T23:53:26.673Z,9.88
2023-05-14T23:55:53.709Z,10.63
2023-05-14T23:58:20.986Z,10.27
